createdAt,value
2017-12-02T00:00:22.980Z,16.10
2017-12-02T00:02:50.463Z,16.40
2017-12-02T00:05:18.701Z,15.80
2017-12-02T00:07:50.053Z,18.23
2017-12-02T00:10:17.503Z,17.77
2017-12-02T00:12:46.387Z,16.02
2017-12-02T00:15:18.469Z,17.62
2017-12-02T00:17:45.934Z,17.77
2017-12-02T00:20:13.404Z,18.35
2017-12-02T00:22:40.871Z,17.30
2017-12-02T00:25:12.284Z,16.17
2017-12-02T00:27:41.276Z,17.65
2017-12-02T00:30:08.732Z,16.75
2017-12-02T00:32:44.063Z,18.17
2017-12-02T00:35:12.298Z,15.90
2017-12-02T00:37:39.756Z,17.50
2017-12-02T00:40:07.228Z,17.67
2017-12-02T00:42:47.092Z,17.00
2017-12-02T00:48:19.596Z,17.35
2017-12-02T00:51:00.471Z,17.67
2017-12-02T00:53:27.945Z,16.60
2017-12-02T00:56:21.200Z,18.80
2017-12-02T00:59:01.205Z,17.87
2017-12-02T01:01:41.566Z,17.95
2017-12-02T01:04:21.284Z,18.73
2017-12-02T01:07:02.898Z,16.37
2017-12-02T01:09:30.349Z,18.58
2017-12-02T01:11:57.813Z,18.50
2017-12-02T01:14:25.302Z,16.77
2017-12-02T01:16:52.856Z,18.00
2017-12-02T01:19:32.858Z,17.60
2017-12-02T01:22:13.952Z,17.87
2017-12-02T01:24:54.135Z,16.62
2017-12-02T01:27:21.587Z,17.40
2017-12-02T01:30:03.666Z,18.20
2017-12-02T01:32:45.401Z,19.80
2017-12-02T01:35:26.763Z,18.10
2017-12-02T01:38:07.444Z,19.30
2017-12-02T01:40:49.023Z,17.45
2017-12-02T01:43:28.999Z,16.95
2017-12-02T01:46:09.501Z,16.80
2017-12-02T01:48:50.068Z,17.40
2017-12-02T01:51:31.729Z,18.08
2017-12-02T01:54:12.211Z,18.25
2017-12-02T01:56:52.679Z,17.37
2017-12-02T01:59:31.437Z,17.08
2017-12-02T02:02:11.643Z,19.15
2017-12-02T02:04:55.016Z,19.15
2017-12-02T02:07:34.824Z,16.77
2017-12-02T02:10:13.305Z,19.95
2017-12-02T02:12:53.698Z,17.60
2017-12-02T02:15:43.810Z,17.20
2017-12-02T02:18:23.290Z,17.37
2017-12-02T02:21:04.268Z,17.20
2017-12-02T02:23:44.362Z,16.92
2017-12-02T02:26:24.024Z,18.10
2017-12-02T02:29:03.544Z,18.85
2017-12-02T02:31:43.192Z,16.67
2017-12-02T02:34:10.639Z,18.45
2017-12-02T02:36:50.837Z,19.10
2017-12-02T02:39:32.276Z,17.67
2017-12-02T02:42:12.715Z,17.05
2017-12-02T02:44:53.420Z,17.23
2017-12-02T02:47:21.467Z,17.62
2017-12-02T02:50:01.739Z,18.50
2017-12-02T02:52:43.331Z,18.30
2017-12-02T02:55:23.318Z,17.75
2017-12-02T02:57:50.774Z,18.08
2017-12-02T03:00:31.721Z,18.73
2017-12-02T03:03:11.496Z,18.00
2017-12-02T03:05:38.945Z,17.37
2017-12-02T03:08:18.799Z,18.33
2017-12-02T03:11:00.244Z,19.80
2017-12-02T03:13:40.866Z,18.20
2017-12-02T03:16:21.372Z,19.05
2017-12-02T03:21:39.892Z,19.35
2017-12-02T03:24:20.280Z,19.62
2017-12-02T03:26:47.735Z,18.77
2017-12-02T03:29:27.642Z,19.02
2017-12-02T03:32:07.072Z,19.40
2017-12-02T03:34:46.288Z,17.15
2017-12-02T03:37:26.542Z,18.55
2017-12-02T03:40:06.944Z,19.60
2017-12-02T03:42:34.472Z,20.02
2017-12-02T03:45:15.497Z,20.65
2017-12-02T03:47:42.981Z,18.98
2017-12-02T03:50:22.756Z,20.70
2017-12-02T03:53:02.249Z,19.25
2017-12-02T03:55:41.085Z,20.35
2017-12-02T03:58:21.729Z,19.17
2017-12-02T04:01:02.192Z,19.45
2017-12-02T04:03:29.638Z,18.48
2017-12-02T04:06:10.320Z,19.98
2017-12-02T04:08:50.188Z,18.95
2017-12-02T04:11:30.780Z,17.00
2017-12-02T04:13:58.251Z,18.40
2017-12-02T04:16:38.288Z,19.87
2017-12-02T04:19:18.635Z,19.08
2017-12-02T04:21:59.204Z,20.10
2017-12-02T04:24:39.814Z,17.85
2017-12-02T04:27:07.292Z,17.05
2017-12-02T04:29:34.766Z,19.25
2017-12-02T04:32:16.704Z,19.40
2017-12-02T04:34:57.438Z,19.80
2017-12-02T04:37:38.792Z,19.08
2017-12-02T04:40:18.890Z,19.75
2017-12-02T04:43:00.331Z,21.48
2017-12-02T04:45:40.796Z,20.45
2017-12-02T04:48:21.277Z,21.75
2017-12-02T04:50:48.804Z,21.92
2017-12-02T04:53:28.748Z,22.83
2017-12-02T04:56:09.099Z,20.40
2017-12-02T04:58:49.653Z,22.62
2017-12-02T05:01:30.049Z,20.80
2017-12-02T05:04:10.547Z,19.90
2017-12-02T05:06:50.993Z,23.60
2017-12-02T05:09:18.440Z,21.80
2017-12-02T05:12:03.265Z,20.08
2017-12-02T05:14:42.156Z,19.87
2017-12-02T05:17:21.536Z,23.27
2017-12-02T05:20:02.149Z,19.73
2017-12-02T05:22:41.968Z,22.30
2017-12-02T05:25:29.881Z,20.73
2017-12-02T05:28:10.414Z,22.60
2017-12-02T05:30:48.807Z,23.33
2017-12-02T05:33:29.174Z,21.77
2017-12-02T05:35:56.624Z,20.33
2017-12-02T05:41:16.636Z,21.40
2017-12-02T05:43:55.414Z,21.65
2017-12-02T05:46:35.576Z,21.98
2017-12-02T05:49:15.039Z,20.23
2017-12-02T05:51:53.922Z,21.92
2017-12-02T05:54:34.334Z,22.55
2017-12-02T05:59:41.019Z,23.80
2017-12-02T06:02:21.691Z,22.73
2017-12-02T06:05:00.948Z,24.52
2017-12-02T06:07:41.158Z,25.00
2017-12-02T06:10:21.850Z,21.87
2017-12-02T06:13:02.923Z,24.33
2017-12-02T06:15:43.496Z,22.23
2017-12-02T06:18:23.257Z,21.55
2017-12-02T06:21:04.157Z,23.55
2017-12-02T06:23:31.650Z,21.77
2017-12-02T06:25:59.104Z,23.42
2017-12-02T06:28:38.907Z,23.50
2017-12-02T06:33:54.251Z,21.33
2017-12-02T06:36:34.692Z,23.33
2017-12-02T06:39:03.292Z,20.08
2017-12-02T06:41:30.768Z,24.10
2017-12-02T06:43:58.277Z,20.50
2017-12-02T06:46:26.528Z,22.42
2017-12-02T06:48:53.988Z,21.80
2017-12-02T06:51:21.444Z,21.30
2017-12-02T06:53:48.960Z,18.50
2017-12-02T06:56:16.428Z,18.25
2017-12-02T06:58:44.565Z,21.48
2017-12-02T07:01:12.823Z,19.15
2017-12-02T07:03:40.283Z,19.50
2017-12-02T07:06:07.755Z,18.70
2017-12-02T07:08:35.235Z,19.65
2017-12-02T07:11:03.185Z,19.52
2017-12-02T07:13:30.670Z,17.80
2017-12-02T07:15:58.263Z,20.58
2017-12-02T07:18:25.715Z,18.35
2017-12-02T07:20:53.205Z,18.45
2017-12-02T07:23:20.662Z,21.83
2017-12-02T07:25:48.264Z,20.55
2017-12-02T07:28:15.729Z,19.48
2017-12-02T07:30:44.218Z,20.17
2017-12-02T07:33:12.279Z,20.17
2017-12-02T07:35:40.528Z,19.33
2017-12-02T07:38:12.675Z,20.10
2017-12-02T07:40:40.152Z,20.42
2017-12-02T07:43:07.635Z,21.40
2017-12-02T07:45:35.137Z,20.30
2017-12-02T07:48:02.604Z,17.85
2017-12-02T07:50:30.070Z,19.52
2017-12-02T07:52:57.540Z,19.60
2017-12-02T07:55:25.587Z,21.30
2017-12-02T07:57:57.907Z,20.80
2017-12-02T08:00:25.376Z,19.67
2017-12-02T08:02:53.070Z,18.27
2017-12-02T08:05:20.540Z,19.98
2017-12-02T08:07:48.006Z,19.60
2017-12-02T08:10:15.487Z,18.15
2017-12-02T08:12:43.758Z,20.23
2017-12-02T08:15:11.981Z,20.35
2017-12-02T08:17:39.454Z,19.20
2017-12-02T08:20:06.900Z,20.60
2017-12-02T08:22:45.806Z,21.23
2017-12-02T08:25:27.148Z,21.37
2017-12-02T08:28:09.492Z,22.30
2017-12-02T08:30:37.397Z,21.92
2017-12-02T08:33:18.146Z,22.50
2017-12-02T08:36:00.213Z,20.45
2017-12-02T08:38:48.424Z,18.92
2017-12-02T08:41:28.620Z,19.55
2017-12-02T08:44:09.383Z,22.25
2017-12-02T08:49:43.141Z,21.45
2017-12-02T08:52:23.955Z,19.23
2017-12-02T08:55:03.817Z,22.73
2017-12-02T08:57:43.928Z,19.52
2017-12-02T09:00:22.974Z,21.77
2017-12-02T09:02:50.558Z,22.05
2017-12-02T09:05:18.063Z,21.77
2017-12-02T09:10:51.782Z,22.70
2017-12-02T09:13:43.349Z,23.73
2017-12-02T09:16:31.712Z,20.10
2017-12-02T09:22:05.156Z,21.55
2017-12-02T09:27:05.555Z,23.98
2017-12-02T09:32:35.163Z,21.20
2017-12-02T09:35:02.965Z,21.15
2017-12-02T09:37:30.469Z,23.05
2017-12-02T09:40:03.425Z,22.90
2017-12-02T09:42:30.914Z,22.75
2017-12-02T09:44:58.417Z,20.88
2017-12-02T09:47:25.862Z,23.58
2017-12-02T09:49:53.360Z,22.20
2017-12-02T09:52:24.741Z,19.23
2017-12-02T09:54:53.004Z,21.30
2017-12-02T09:57:20.740Z,18.50
2017-12-02T09:59:48.344Z,20.55
2017-12-02T10:02:15.833Z,20.95
2017-12-02T10:04:43.296Z,21.92
2017-12-02T10:07:10.820Z,20.58
2017-12-02T10:09:39.092Z,20.08
2017-12-02T10:12:06.649Z,20.12
2017-12-02T10:14:38.200Z,19.15
2017-12-02T10:17:05.729Z,22.27
2017-12-02T10:19:33.213Z,20.75
2017-12-02T10:22:01.448Z,22.25
2017-12-02T10:24:29.019Z,21.10
2017-12-02T10:26:56.709Z,21.30
2017-12-02T10:29:28.365Z,19.30
2017-12-02T10:31:55.855Z,17.55
2017-12-02T10:34:23.932Z,20.08
2017-12-02T10:37:05.032Z,19.92
2017-12-02T10:42:29.349Z,19.90
2017-12-02T10:45:09.525Z,20.17
2017-12-02T10:47:50.113Z,20.62
2017-12-02T10:53:16.141Z,18.58
2017-12-02T10:55:43.625Z,19.90
2017-12-02T10:58:11.126Z,19.70
2017-12-02T11:00:38.633Z,20.08
2017-12-02T11:03:06.176Z,21.05
2017-12-02T11:05:34.129Z,19.05
2017-12-02T11:08:02.223Z,18.45
2017-12-02T11:10:29.862Z,18.40
2017-12-02T11:12:58.225Z,18.85
2017-12-02T11:15:37.833Z,19.20
2017-12-02T11:18:09.700Z,19.37
2017-12-02T11:20:37.277Z,21.73
2017-12-02T11:23:04.852Z,19.05
2017-12-02T11:25:32.342Z,18.48
2017-12-02T11:27:59.804Z,20.50
2017-12-02T11:30:33.759Z,20.17
2017-12-02T11:33:01.269Z,18.90
2017-12-02T11:35:29.725Z,21.95
2017-12-02T11:37:57.240Z,17.73
2017-12-02T11:40:24.756Z,20.25
2017-12-02T11:42:52.244Z,20.40
2017-12-02T11:45:19.720Z,18.95
2017-12-02T11:47:47.900Z,20.55
2017-12-02T11:50:15.435Z,20.15
2017-12-02T11:52:43.373Z,18.10
2017-12-02T11:55:10.834Z,20.33
2017-12-02T11:57:38.347Z,18.58
2017-12-02T12:00:05.821Z,19.70
2017-12-02T12:02:33.299Z,21.35
2017-12-02T12:05:18.067Z,20.90
2017-12-02T12:07:45.556Z,20.37
2017-12-02T12:10:12.992Z,19.62
2017-12-02T12:12:40.468Z,20.80
2017-12-02T12:15:07.944Z,18.90
2017-12-02T12:17:35.437Z,18.15
2017-12-02T12:20:16.144Z,18.02
2017-12-02T12:23:28.392Z,18.08
2017-12-02T12:26:09.778Z,17.80
2017-12-02T12:28:49.569Z,18.73
2017-12-02T12:34:12.816Z,17.98
2017-12-02T12:36:56.896Z,20.33
2017-12-02T12:39:37.971Z,17.50
2017-12-02T12:45:12.028Z,17.40
2017-12-02T12:48:13.796Z,18.00
2017-12-02T12:50:54.896Z,18.08
2017-12-02T12:53:34.689Z,19.67
2017-12-02T12:59:19.850Z,16.00
2017-12-02T13:05:02.696Z,19.33
2017-12-02T13:10:37.307Z,19.15
2017-12-02T13:13:22.389Z,18.85
2017-12-02T13:16:08.802Z,21.30
2017-12-02T13:18:49.950Z,19.50
2017-12-02T13:21:17.520Z,19.62
2017-12-02T13:23:45.140Z,17.75
2017-12-02T13:30:38.984Z,18.05
2017-12-02T13:35:59.429Z,18.35
2017-12-02T13:44:22.720Z,17.27
2017-12-02T13:46:59.027Z,17.27
2017-12-02T13:49:27.349Z,18.45
2017-12-02T13:51:58.593Z,17.37
2017-12-02T13:54:26.126Z,17.92
2017-12-02T13:56:59.751Z,17.55
2017-12-02T13:59:33.359Z,18.37
2017-12-02T14:02:01.344Z,18.12
2017-12-02T14:04:29.332Z,17.25
2017-12-02T14:06:56.955Z,15.02
2017-12-02T14:09:25.272Z,16.65
2017-12-02T14:11:53.565Z,16.15
2017-12-02T14:37:46.194Z,12.90
2017-12-02T15:03:32.956Z,16.30
2017-12-02T15:06:26.849Z,14.73
2017-12-02T15:08:55.101Z,15.20
2017-12-02T15:11:41.358Z,15.95
2017-12-02T15:14:08.849Z,15.77
2017-12-02T15:16:52.654Z,16.40
2017-12-02T15:19:22.207Z,15.93
2017-12-02T15:42:03.015Z,16.58
2017-12-02T15:44:30.710Z,15.63
2017-12-02T15:46:58.583Z,16.58
2017-12-02T15:49:41.056Z,20.55
2017-12-02T15:55:38.853Z,17.60
2017-12-02T15:58:06.308Z,16.98
2017-12-02T16:00:33.771Z,16.02
2017-12-02T16:03:01.221Z,17.27
2017-12-02T16:05:28.837Z,18.30
2017-12-02T16:07:56.344Z,18.60
2017-12-02T16:10:23.813Z,16.85
2017-12-02T16:12:51.259Z,17.00
2017-12-02T16:15:18.834Z,18.17
2017-12-02T16:17:46.305Z,18.12
2017-12-02T16:20:13.761Z,18.83
2017-12-02T16:22:42.086Z,18.85
2017-12-02T16:25:09.546Z,15.95
2017-12-02T16:27:37.051Z,18.17
2017-12-02T16:30:04.525Z,17.65
2017-12-02T16:32:32.018Z,16.83
2017-12-02T16:34:59.456Z,19.60
2017-12-02T16:37:27.084Z,19.30
2017-12-02T16:39:54.573Z,19.02
2017-12-02T16:51:13.865Z,17.65
2017-12-02T16:56:45.904Z,21.60
2017-12-02T17:02:01.199Z,22.20
2017-12-02T17:04:28.937Z,24.50
2017-12-02T17:06:57.176Z,22.30
2017-12-02T17:09:40.695Z,20.80
2017-12-02T17:17:33.810Z,20.17
2017-12-02T17:20:20.989Z,22.08
2017-12-02T17:26:13.156Z,21.62
2017-12-02T17:28:41.049Z,23.17
2017-12-02T17:31:09.099Z,21.92
2017-12-02T17:36:50.684Z,23.42
2017-12-02T17:39:18.989Z,24.35
2017-12-02T17:41:59.375Z,22.42
2017-12-02T17:44:26.848Z,22.40
2017-12-02T17:46:54.362Z,21.33
2017-12-02T17:49:36.914Z,23.08
2017-12-02T17:52:08.281Z,21.23
2017-12-02T17:56:34.772Z,22.08
2017-12-02T17:59:03.204Z,20.98
2017-12-02T18:01:30.822Z,23.85
2017-12-02T18:06:59.776Z,29.17
2017-12-02T18:09:27.295Z,26.33
2017-12-02T18:11:55.623Z,24.45
2017-12-02T18:14:23.198Z,22.35
2017-12-02T18:16:51.578Z,23.52
2017-12-02T18:19:20.462Z,22.30
2017-12-02T18:21:48.036Z,23.12
2017-12-02T18:24:15.541Z,23.65
2017-12-02T18:26:44.779Z,22.95
2017-12-02T18:29:13.044Z,22.90
2017-12-02T18:31:40.623Z,21.35
2017-12-02T18:34:08.087Z,23.35
2017-12-02T18:36:35.595Z,23.15
2017-12-02T18:39:03.038Z,23.75
2017-12-02T18:41:30.612Z,24.55
2017-12-02T18:43:59.013Z,23.17
2017-12-02T18:46:26.547Z,22.55
2017-12-02T18:48:54.790Z,23.33
2017-12-02T18:54:45.901Z,23.05
2017-12-02T18:57:13.458Z,22.00
2017-12-02T18:59:40.964Z,23.55
2017-12-02T19:05:05.428Z,23.02
2017-12-02T19:07:33.144Z,21.90
2017-12-02T19:10:00.672Z,24.30
2017-12-02T19:12:28.274Z,21.85
2017-12-02T19:20:51.510Z,23.60
2017-12-02T19:23:20.338Z,23.17
2017-12-02T19:25:47.919Z,21.73
2017-12-02T19:28:15.733Z,20.17
2017-12-02T19:33:44.888Z,20.30
2017-12-02T19:36:24.857Z,20.83
2017-12-02T19:38:52.332Z,21.20
2017-12-02T19:41:32.406Z,21.48
2017-12-02T19:43:59.948Z,20.33
2017-12-02T19:46:27.404Z,21.23
2017-12-02T19:48:54.863Z,21.10
2017-12-02T19:51:22.330Z,18.98
2017-12-02T19:53:49.786Z,20.50
2017-12-02T19:56:17.259Z,21.10
2017-12-02T19:58:44.844Z,18.90
2017-12-02T20:01:12.383Z,19.33
2017-12-02T20:03:39.864Z,19.37
2017-12-02T20:06:08.094Z,21.50
2017-12-02T20:08:35.683Z,20.50
2017-12-02T20:11:03.177Z,18.45
2017-12-02T20:13:30.624Z,21.12
2017-12-02T20:15:58.159Z,20.48
2017-12-02T20:18:25.821Z,19.25
2017-12-02T20:20:54.123Z,18.45
2017-12-02T20:23:21.744Z,22.55
2017-12-02T20:25:49.865Z,21.40
2017-12-02T20:28:17.329Z,22.00
2017-12-02T20:30:45.033Z,23.33
2017-12-02T20:33:12.492Z,21.33
2017-12-02T20:35:39.955Z,22.40
2017-12-02T20:38:07.413Z,21.55
2017-12-02T20:40:35.869Z,20.85
2017-12-02T20:43:03.352Z,19.65
2017-12-02T20:45:30.852Z,21.12
2017-12-02T20:47:59.090Z,22.73
2017-12-02T20:50:38.051Z,19.83
2017-12-02T20:53:05.496Z,19.70
2017-12-02T21:04:07.128Z,21.83
2017-12-02T21:06:35.827Z,21.20
2017-12-02T21:09:18.157Z,21.67
2017-12-02T21:11:47.305Z,18.55
2017-12-02T21:16:57.399Z,22.13
2017-12-02T21:19:26.712Z,22.10
2017-12-02T21:21:56.756Z,20.67
2017-12-02T21:24:25.695Z,21.90
2017-12-02T21:26:54.849Z,20.45
2017-12-02T21:29:24.721Z,20.73
2017-12-02T21:32:05.123Z,20.02
2017-12-02T21:34:32.692Z,18.85
2017-12-02T21:39:41.501Z,20.88
2017-12-02T21:42:26.192Z,20.83
2017-12-02T21:47:43.419Z,21.23
2017-12-02T21:50:12.173Z,20.27
2017-12-02T21:52:51.654Z,21.12
2017-12-02T21:55:19.255Z,21.35
2017-12-02T21:57:48.248Z,23.27
2017-12-02T22:00:17.339Z,23.83
2017-12-02T22:05:35.904Z,23.52
2017-12-02T22:08:20.787Z,22.17
2017-12-02T22:13:35.754Z,21.40
2017-12-02T22:19:17.839Z,22.25
2017-12-02T22:21:56.891Z,21.20
2017-12-02T22:24:24.431Z,22.02
2017-12-02T22:26:52.117Z,21.27
2017-12-02T22:32:13.747Z,22.80
2017-12-02T22:37:28.869Z,21.00
2017-12-02T22:43:06.135Z,20.60
2017-12-02T22:48:41.527Z,21.60
2017-12-02T22:51:08.993Z,22.02
2017-12-02T22:53:36.450Z,23.02
2017-12-02T22:56:03.892Z,22.92
2017-12-02T22:58:32.162Z,22.15
2017-12-02T23:06:49.697Z,20.92
2017-12-02T23:09:17.149Z,23.38
2017-12-02T23:19:41.942Z,22.58
2017-12-02T23:22:10.242Z,21.67
2017-12-02T23:24:38.553Z,22.75
2017-12-02T23:27:06.001Z,20.65
2017-12-02T23:29:34.320Z,20.67
2017-12-02T23:32:01.761Z,21.08
2017-12-02T23:34:29.278Z,21.73
2017-12-02T23:36:56.866Z,22.48
2017-12-02T23:39:24.333Z,22.20
2017-12-02T23:41:51.807Z,21.83
2017-12-02T23:44:19.269Z,20.60
2017-12-02T23:46:46.756Z,20.30
2017-12-02T23:49:14.264Z,21.67
2017-12-02T23:51:41.736Z,21.92
2017-12-02T23:54:09.234Z,21.40
2017-12-02T23:56:36.699Z,20.35
2017-12-02T23:59:04.177Z,21.75
